sensor_id;sensor_type;location;lat;lon;timestamp;P1;durP1;ratioP1;P2;durP2;ratioP2
83151;SDS011;73381;58.502;8.624;2024-02-15T00:05:20;5.28;;;1.10;;
83151;SDS011;73381;58.502;8.624;2024-02-15T00:08:22;4.25;;;1.30;;
83151;SDS011;73381;58.502;8.624;2024-02-15T00:11:27;3.63;;;1.35;;
83151;SDS011;73381;58.502;8.624;2024-02-15T00:15:05;2.42;;;0.80;;
83151;SDS011;73381;58.502;8.624;2024-02-15T00:18:07;3.22;;;1.00;;
83151;SDS011;73381;58.502;8.624;2024-02-15T00:21:48;3.38;;;1.13;;
83151;SDS011;73381;58.502;8.624;2024-02-15T00:25:00;7.40;;;1.55;;
83151;SDS011;73381;58.502;8.624;2024-02-15T00:28:02;6.78;;;1.13;;
83151;SDS011;73381;58.502;8.624;2024-02-15T00:34:16;4.13;;;1.13;;
83151;SDS011;73381;58.502;8.624;2024-02-15T00:37:22;4.20;;;1.08;;
83151;SDS011;73381;58.502;8.624;2024-02-15T00:40:24;3.08;;;1.13;;
83151;SDS011;73381;58.502;8.624;2024-02-15T00:43:26;2.20;;;0.95;;
83151;SDS011;73381;58.502;8.624;2024-02-15T00:46:30;5.63;;;1.40;;
83151;SDS011;73381;58.502;8.624;2024-02-15T00:49:32;11.65;;;1.63;;
83151;SDS011;73381;58.502;8.624;2024-02-15T00:52:42;4.78;;;1.02;;
83151;SDS011;73381;58.502;8.624;2024-02-15T00:55:44;3.22;;;1.13;;
83151;SDS011;73381;58.502;8.624;2024-02-15T00:58:48;2.97;;;1.13;;
83151;SDS011;73381;58.502;8.624;2024-02-15T01:05:00;7.38;;;1.20;;
83151;SDS011;73381;58.502;8.624;2024-02-15T01:08:06;3.08;;;1.02;;
83151;SDS011;73381;58.502;8.624;2024-02-15T01:11:28;5.18;;;1.02;;
83151;SDS011;73381;58.502;8.624;2024-02-15T01:17:32;2.88;;;1.13;;
83151;SDS011;73381;58.502;8.624;2024-02-15T01:20:34;3.53;;;1.00;;
83151;SDS011;73381;58.502;8.624;2024-02-15T01:23:37;6.57;;;0.88;;
83151;SDS011;73381;58.502;8.624;2024-02-15T01:26:39;2.30;;;0.70;;
83151;SDS011;73381;58.502;8.624;2024-02-15T01:29:41;2.58;;;0.68;;
83151;SDS011;73381;58.502;8.624;2024-02-15T01:32:43;2.50;;;0.70;;
83151;SDS011;73381;58.502;8.624;2024-02-15T01:35:45;6.07;;;1.00;;
83151;SDS011;73381;58.502;8.624;2024-02-15T01:38:49;3.80;;;1.02;;
83151;SDS011;73381;58.502;8.624;2024-02-15T01:41:50;4.15;;;0.90;;
83151;SDS011;73381;58.502;8.624;2024-02-15T01:44:52;3.58;;;0.80;;
83151;SDS011;73381;58.502;8.624;2024-02-15T01:47:54;2.53;;;0.68;;
83151;SDS011;73381;58.502;8.624;2024-02-15T01:50:56;2.38;;;0.80;;
83151;SDS011;73381;58.502;8.624;2024-02-15T01:54:01;1.92;;;0.80;;
83151;SDS011;73381;58.502;8.624;2024-02-15T01:57:03;1.30;;;0.55;;
83151;SDS011;73381;58.502;8.624;2024-02-15T02:00:06;1.50;;;0.63;;
83151;SDS011;73381;58.502;8.624;2024-02-15T02:03:11;1.58;;;0.52;;
83151;SDS011;73381;58.502;8.624;2024-02-15T02:06:27;2.25;;;0.60;;
83151;SDS011;73381;58.502;8.624;2024-02-15T02:09:34;2.90;;;0.65;;
83151;SDS011;73381;58.502;8.624;2024-02-15T02:12:39;5.78;;;0.85;;
83151;SDS011;73381;58.502;8.624;2024-02-15T02:15:41;3.10;;;0.52;;
83151;SDS011;73381;58.502;8.624;2024-02-15T02:18:43;1.38;;;0.60;;
83151;SDS011;73381;58.502;8.624;2024-02-15T02:21:46;2.17;;;0.40;;
83151;SDS011;73381;58.502;8.624;2024-02-15T02:28:52;1.10;;;0.32;;
83151;SDS011;73381;58.502;8.624;2024-02-15T02:31:59;1.50;;;0.40;;
83151;SDS011;73381;58.502;8.624;2024-02-15T02:35:02;1.58;;;0.55;;
83151;SDS011;73381;58.502;8.624;2024-02-15T02:38:05;3.20;;;0.68;;
83151;SDS011;73381;58.502;8.624;2024-02-15T02:41:07;0.73;;;0.30;;
83151;SDS011;73381;58.502;8.624;2024-02-15T02:44:11;1.67;;;0.50;;
83151;SDS011;73381;58.502;8.624;2024-02-15T02:50:24;1.63;;;0.50;;
83151;SDS011;73381;58.502;8.624;2024-02-15T02:53:27;1.17;;;0.32;;
83151;SDS011;73381;58.502;8.624;2024-02-15T02:56:29;4.60;;;0.65;;
83151;SDS011;73381;58.502;8.624;2024-02-15T02:59:38;1.35;;;0.45;;
83151;SDS011;73381;58.502;8.624;2024-02-15T03:02:41;2.40;;;0.73;;
83151;SDS011;73381;58.502;8.624;2024-02-15T03:05:43;5.75;;;0.70;;
83151;SDS011;73381;58.502;8.624;2024-02-15T03:08:45;6.07;;;1.08;;
83151;SDS011;73381;58.502;8.624;2024-02-15T03:11:47;1.65;;;0.50;;
83151;SDS011;73381;58.502;8.624;2024-02-15T03:14:50;2.45;;;0.70;;
83151;SDS011;73381;58.502;8.624;2024-02-15T03:17:52;2.10;;;0.60;;
83151;SDS011;73381;58.502;8.624;2024-02-15T03:20:55;4.00;;;0.45;;
83151;SDS011;73381;58.502;8.624;2024-02-15T03:23:57;2.70;;;0.73;;
83151;SDS011;73381;58.502;8.624;2024-02-15T03:26:59;2.55;;;0.57;;
83151;SDS011;73381;58.502;8.624;2024-02-15T03:30:02;2.53;;;0.40;;
83151;SDS011;73381;58.502;8.624;2024-02-15T03:33:04;2.75;;;0.57;;
83151;SDS011;73381;58.502;8.624;2024-02-15T03:36:07;1.00;;;0.52;;
83151;SDS011;73381;58.502;8.624;2024-02-15T03:39:09;6.88;;;0.70;;
83151;SDS011;73381;58.502;8.624;2024-02-15T03:45:22;2.35;;;0.38;;
83151;SDS011;73381;58.502;8.624;2024-02-15T03:48:25;2.22;;;0.50;;
83151;SDS011;73381;58.502;8.624;2024-02-15T03:51:27;4.57;;;0.82;;
83151;SDS011;73381;58.502;8.624;2024-02-15T03:54:28;4.25;;;0.73;;
83151;SDS011;73381;58.502;8.624;2024-02-15T03:57:31;1.05;;;0.50;;
83151;SDS011;73381;58.502;8.624;2024-02-15T04:00:34;3.92;;;0.93;;
83151;SDS011;73381;58.502;8.624;2024-02-15T04:06:49;0.95;;;0.47;;
83151;SDS011;73381;58.502;8.624;2024-02-15T04:09:54;1.65;;;0.70;;
83151;SDS011;73381;58.502;8.624;2024-02-15T04:13:00;2.95;;;0.80;;
83151;SDS011;73381;58.502;8.624;2024-02-15T04:16:04;4.97;;;0.90;;
83151;SDS011;73381;58.502;8.624;2024-02-15T04:22:15;1.83;;;0.70;;
83151;SDS011;73381;58.502;8.624;2024-02-15T04:25:18;6.18;;;1.08;;
83151;SDS011;73381;58.502;8.624;2024-02-15T04:28:29;5.35;;;0.90;;
83151;SDS011;73381;58.502;8.624;2024-02-15T04:31:33;2.67;;;0.70;;
83151;SDS011;73381;58.502;8.624;2024-02-15T04:34:35;2.53;;;0.80;;
83151;SDS011;73381;58.502;8.624;2024-02-15T04:37:39;3.80;;;0.65;;
83151;SDS011;73381;58.502;8.624;2024-02-15T04:41:04;2.42;;;0.80;;
83151;SDS011;73381;58.502;8.624;2024-02-15T04:47:27;3.10;;;0.75;;
83151;SDS011;73381;58.502;8.624;2024-02-15T04:50:29;3.15;;;0.68;;
83151;SDS011;73381;58.502;8.624;2024-02-15T04:53:31;2.53;;;0.63;;
83151;SDS011;73381;58.502;8.624;2024-02-15T04:56:33;2.35;;;0.60;;
83151;SDS011;73381;58.502;8.624;2024-02-15T04:59:35;4.35;;;0.90;;
83151;SDS011;73381;58.502;8.624;2024-02-15T05:05:43;2.95;;;0.40;;
83151;SDS011;73381;58.502;8.624;2024-02-15T05:08:54;4.25;;;0.70;;
83151;SDS011;73381;58.502;8.624;2024-02-15T05:11:56;2.20;;;0.77;;
83151;SDS011;73381;58.502;8.624;2024-02-15T05:14:58;1.45;;;0.60;;
83151;SDS011;73381;58.502;8.624;2024-02-15T05:18:02;1.27;;;0.50;;
83151;SDS011;73381;58.502;8.624;2024-02-15T05:21:06;1.92;;;0.40;;
83151;SDS011;73381;58.502;8.624;2024-02-15T05:24:08;1.40;;;0.50;;
83151;SDS011;73381;58.502;8.624;2024-02-15T05:27:12;2.35;;;0.63;;
83151;SDS011;73381;58.502;8.624;2024-02-15T05:30:14;2.45;;;0.57;;
83151;SDS011;73381;58.502;8.624;2024-02-15T05:33:18;1.95;;;0.60;;
83151;SDS011;73381;58.502;8.624;2024-02-15T05:36:22;1.88;;;0.60;;
83151;SDS011;73381;58.502;8.624;2024-02-15T05:39:30;3.15;;;0.57;;
83151;SDS011;73381;58.502;8.624;2024-02-15T05:42:32;5.97;;;1.00;;
83151;SDS011;73381;58.502;8.624;2024-02-15T05:45:34;2.45;;;0.80;;
83151;SDS011;73381;58.502;8.624;2024-02-15T05:48:37;3.88;;;0.90;;
83151;SDS011;73381;58.502;8.624;2024-02-15T05:51:39;1.88;;;0.70;;
83151;SDS011;73381;58.502;8.624;2024-02-15T05:54:43;2.38;;;0.82;;
83151;SDS011;73381;58.502;8.624;2024-02-15T05:57:45;2.20;;;0.73;;
83151;SDS011;73381;58.502;8.624;2024-02-15T06:00:47;2.28;;;0.75;;
83151;SDS011;73381;58.502;8.624;2024-02-15T06:03:51;2.20;;;0.70;;
83151;SDS011;73381;58.502;8.624;2024-02-15T06:06:53;3.83;;;0.80;;
83151;SDS011;73381;58.502;8.624;2024-02-15T06:09:55;6.22;;;1.00;;
83151;SDS011;73381;58.502;8.624;2024-02-15T06:13:02;3.88;;;0.82;;
83151;SDS011;73381;58.502;8.624;2024-02-15T06:16:04;3.13;;;1.00;;
83151;SDS011;73381;58.502;8.624;2024-02-15T06:19:14;6.93;;;0.90;;
83151;SDS011;73381;58.502;8.624;2024-02-15T06:22:17;3.90;;;1.02;;
83151;SDS011;73381;58.502;8.624;2024-02-15T06:25:20;1.75;;;0.70;;
83151;SDS011;73381;58.502;8.624;2024-02-15T06:28:26;3.67;;;0.90;;
83151;SDS011;73381;58.502;8.624;2024-02-15T06:31:33;1.88;;;0.80;;
83151;SDS011;73381;58.502;8.624;2024-02-15T06:37:48;6.50;;;1.13;;
83151;SDS011;73381;58.502;8.624;2024-02-15T06:40:52;6.45;;;1.20;;
83151;SDS011;73381;58.502;8.624;2024-02-15T06:43:59;2.97;;;0.90;;
83151;SDS011;73381;58.502;8.624;2024-02-15T06:47:01;3.03;;;0.80;;
83151;SDS011;73381;58.502;8.624;2024-02-15T06:50:03;3.45;;;1.02;;
83151;SDS011;73381;58.502;8.624;2024-02-15T06:53:09;2.17;;;0.75;;
83151;SDS011;73381;58.502;8.624;2024-02-15T06:56:13;8.63;;;1.48;;
83151;SDS011;73381;58.502;8.624;2024-02-15T06:59:15;4.07;;;1.13;;
83151;SDS011;73381;58.502;8.624;2024-02-15T07:02:18;3.10;;;0.80;;
83151;SDS011;73381;58.502;8.624;2024-02-15T07:05:20;2.60;;;0.80;;
83151;SDS011;73381;58.502;8.624;2024-02-15T07:11:39;1.98;;;0.60;;
83151;SDS011;73381;58.502;8.624;2024-02-15T07:14:41;2.38;;;0.90;;
83151;SDS011;73381;58.502;8.624;2024-02-15T07:17:43;1.77;;;0.70;;
83151;SDS011;73381;58.502;8.624;2024-02-15T07:20:45;2.60;;;0.95;;
83151;SDS011;73381;58.502;8.624;2024-02-15T07:23:48;2.15;;;0.70;;
83151;SDS011;73381;58.502;8.624;2024-02-15T07:26:52;1.83;;;0.70;;
83151;SDS011;73381;58.502;8.624;2024-02-15T07:29:54;3.35;;;1.08;;
83151;SDS011;73381;58.502;8.624;2024-02-15T07:32:56;3.78;;;0.90;;
83151;SDS011;73381;58.502;8.624;2024-02-15T07:42:28;1.35;;;0.68;;
83151;SDS011;73381;58.502;8.624;2024-02-15T07:45:31;2.03;;;0.85;;
83151;SDS011;73381;58.502;8.624;2024-02-15T07:48:37;1.95;;;0.70;;
83151;SDS011;73381;58.502;8.624;2024-02-15T07:54:51;1.00;;;0.43;;
83151;SDS011;73381;58.502;8.624;2024-02-15T07:57:56;1.83;;;0.70;;
83151;SDS011;73381;58.502;8.624;2024-02-15T08:01:01;1.50;;;0.60;;
83151;SDS011;73381;58.502;8.624;2024-02-15T08:04:03;2.05;;;0.68;;
83151;SDS011;73381;58.502;8.624;2024-02-15T08:07:05;1.85;;;0.80;;
83151;SDS011;73381;58.502;8.624;2024-02-15T08:10:07;2.53;;;0.90;;
83151;SDS011;73381;58.502;8.624;2024-02-15T08:13:11;2.83;;;0.98;;
83151;SDS011;73381;58.502;8.624;2024-02-15T08:16:13;3.08;;;1.20;;
83151;SDS011;73381;58.502;8.624;2024-02-15T08:22:36;3.42;;;0.73;;
83151;SDS011;73381;58.502;8.624;2024-02-15T08:25:38;1.85;;;0.70;;
83151;SDS011;73381;58.502;8.624;2024-02-15T08:28:42;1.92;;;0.68;;
83151;SDS011;73381;58.502;8.624;2024-02-15T08:31:43;1.52;;;0.65;;
83151;SDS011;73381;58.502;8.624;2024-02-15T08:34:45;2.75;;;0.93;;
83151;SDS011;73381;58.502;8.624;2024-02-15T08:37:47;2.25;;;0.60;;
83151;SDS011;73381;58.502;8.624;2024-02-15T08:40:49;3.13;;;1.02;;
83151;SDS011;73381;58.502;8.624;2024-02-15T08:43:54;2.50;;;0.90;;
83151;SDS011;73381;58.502;8.624;2024-02-15T08:46:57;1.05;;;0.50;;
83151;SDS011;73381;58.502;8.624;2024-02-15T08:53:02;1.67;;;0.63;;
83151;SDS011;73381;58.502;8.624;2024-02-15T08:56:04;0.93;;;0.43;;
83151;SDS011;73381;58.502;8.624;2024-02-15T08:59:11;1.75;;;0.63;;
83151;SDS011;73381;58.502;8.624;2024-02-15T09:02:13;1.55;;;0.47;;
83151;SDS011;73381;58.502;8.624;2024-02-15T09:05:15;1.70;;;0.63;;
83151;SDS011;73381;58.502;8.624;2024-02-15T09:08:18;0.68;;;0.40;;
83151;SDS011;73381;58.502;8.624;2024-02-15T09:11:20;1.38;;;0.55;;
83151;SDS011;73381;58.502;8.624;2024-02-15T09:14:24;3.33;;;0.73;;
83151;SDS011;73381;58.502;8.624;2024-02-15T09:17:26;1.98;;;0.50;;
83151;SDS011;73381;58.502;8.624;2024-02-15T09:20:28;0.68;;;0.32;;
83151;SDS011;73381;58.502;8.624;2024-02-15T09:23:30;2.00;;;0.63;;
83151;SDS011;73381;58.502;8.624;2024-02-15T09:26:31;1.33;;;0.50;;
83151;SDS011;73381;58.502;8.624;2024-02-15T09:29:35;1.63;;;0.60;;
83151;SDS011;73381;58.502;8.624;2024-02-15T09:32:37;1.70;;;0.55;;
83151;SDS011;73381;58.502;8.624;2024-02-15T09:35:39;3.50;;;0.80;;
83151;SDS011;73381;58.502;8.624;2024-02-15T09:38:41;1.23;;;0.40;;
83151;SDS011;73381;58.502;8.624;2024-02-15T09:41:43;2.03;;;0.70;;
83151;SDS011;73381;58.502;8.624;2024-02-15T09:44:46;1.98;;;0.60;;
83151;SDS011;73381;58.502;8.624;2024-02-15T09:47:49;1.17;;;0.40;;
83151;SDS011;73381;58.502;8.624;2024-02-15T09:50:52;1.20;;;0.40;;
83151;SDS011;73381;58.502;8.624;2024-02-15T09:53:58;1.75;;;0.65;;
83151;SDS011;73381;58.502;8.624;2024-02-15T09:57:05;1.25;;;0.40;;
83151;SDS011;73381;58.502;8.624;2024-02-15T10:00:24;0.98;;;0.43;;
83151;SDS011;73381;58.502;8.624;2024-02-15T10:03:26;2.13;;;0.65;;
83151;SDS011;73381;58.502;8.624;2024-02-15T10:12:49;2.17;;;0.65;;
83151;SDS011;73381;58.502;8.624;2024-02-15T10:18:55;2.42;;;0.80;;
83151;SDS011;73381;58.502;8.624;2024-02-15T10:22:21;2.03;;;0.65;;
83151;SDS011;73381;58.502;8.624;2024-02-15T10:28:40;1.42;;;0.57;;
83151;SDS011;73381;58.502;8.624;2024-02-15T10:31:52;3.05;;;0.90;;
83151;SDS011;73381;58.502;8.624;2024-02-15T10:38:10;2.05;;;0.60;;
83151;SDS011;73381;58.502;8.624;2024-02-15T10:41:12;1.75;;;0.65;;
83151;SDS011;73381;58.502;8.624;2024-02-15T10:44:16;1.05;;;0.50;;
83151;SDS011;73381;58.502;8.624;2024-02-15T10:47:20;0.22;;;0.17;;
83151;SDS011;73381;58.502;8.624;2024-02-15T10:50:23;0.55;;;0.30;;
83151;SDS011;73381;58.502;8.624;2024-02-15T10:53:26;1.23;;;0.65;;
83151;SDS011;73381;58.502;8.624;2024-02-15T10:56:32;0.65;;;0.22;;
83151;SDS011;73381;58.502;8.624;2024-02-15T10:59:43;0.95;;;0.32;;
83151;SDS011;73381;58.502;8.624;2024-02-15T11:09:22;0.98;;;0.40;;
83151;SDS011;73381;58.502;8.624;2024-02-15T11:12:24;1.08;;;0.45;;
83151;SDS011;73381;58.502;8.624;2024-02-15T11:15:43;1.58;;;0.60;;
83151;SDS011;73381;58.502;8.624;2024-02-15T11:19:04;2.35;;;0.95;;
83151;SDS011;73381;58.502;8.624;2024-02-15T11:22:07;1.15;;;0.50;;
83151;SDS011;73381;58.502;8.624;2024-02-15T11:25:11;3.92;;;0.93;;
83151;SDS011;73381;58.502;8.624;2024-02-15T11:31:52;1.52;;;0.60;;
83151;SDS011;73381;58.502;8.624;2024-02-15T11:35:02;0.55;;;0.22;;
83151;SDS011;73381;58.502;8.624;2024-02-15T11:38:04;1.65;;;0.65;;
83151;SDS011;73381;58.502;8.624;2024-02-15T11:41:32;0.98;;;0.40;;
83151;SDS011;73381;58.502;8.624;2024-02-15T11:44:34;2.17;;;0.70;;
83151;SDS011;73381;58.502;8.624;2024-02-15T11:47:37;2.03;;;0.75;;
83151;SDS011;73381;58.502;8.624;2024-02-15T11:50:40;1.77;;;0.60;;
83151;SDS011;73381;58.502;8.624;2024-02-15T11:53:43;1.65;;;0.63;;
83151;SDS011;73381;58.502;8.624;2024-02-15T11:56:52;1.33;;;0.60;;
83151;SDS011;73381;58.502;8.624;2024-02-15T11:59:54;1.83;;;0.50;;
83151;SDS011;73381;58.502;8.624;2024-02-15T12:02:58;1.38;;;0.52;;
83151;SDS011;73381;58.502;8.624;2024-02-15T12:06:01;2.78;;;0.65;;
83151;SDS011;73381;58.502;8.624;2024-02-15T12:09:04;5.60;;;1.75;;
83151;SDS011;73381;58.502;8.624;2024-02-15T12:12:07;5.93;;;1.50;;
83151;SDS011;73381;58.502;8.624;2024-02-15T12:15:11;5.00;;;1.30;;
83151;SDS011;73381;58.502;8.624;2024-02-15T12:18:13;9.55;;;2.92;;
83151;SDS011;73381;58.502;8.624;2024-02-15T12:21:16;1.75;;;0.73;;
83151;SDS011;73381;58.502;8.624;2024-02-15T12:24:20;3.38;;;1.25;;
83151;SDS011;73381;58.502;8.624;2024-02-15T12:27:24;2.63;;;0.85;;
83151;SDS011;73381;58.502;8.624;2024-02-15T12:30:26;2.40;;;0.98;;
83151;SDS011;73381;58.502;8.624;2024-02-15T12:33:34;3.95;;;1.52;;
83151;SDS011;73381;58.502;8.624;2024-02-15T12:36:36;2.55;;;0.90;;
83151;SDS011;73381;58.502;8.624;2024-02-15T12:39:39;7.25;;;2.25;;
83151;SDS011;73381;58.502;8.624;2024-02-15T12:42:42;2.65;;;0.90;;
83151;SDS011;73381;58.502;8.624;2024-02-15T12:45:44;3.22;;;1.02;;
83151;SDS011;73381;58.502;8.624;2024-02-15T12:48:46;4.20;;;0.90;;
83151;SDS011;73381;58.502;8.624;2024-02-15T12:51:49;4.05;;;1.40;;
83151;SDS011;73381;58.502;8.624;2024-02-15T12:55:05;2.50;;;0.77;;
83151;SDS011;73381;58.502;8.624;2024-02-15T12:58:13;6.68;;;0.85;;
83151;SDS011;73381;58.502;8.624;2024-02-15T13:01:15;2.70;;;0.82;;
83151;SDS011;73381;58.502;8.624;2024-02-15T13:04:23;5.90;;;1.30;;
83151;SDS011;73381;58.502;8.624;2024-02-15T13:07:26;8.52;;;2.35;;
83151;SDS011;73381;58.502;8.624;2024-02-15T13:10:28;12.45;;;3.50;;
83151;SDS011;73381;58.502;8.624;2024-02-15T13:13:32;11.25;;;2.10;;
83151;SDS011;73381;58.502;8.624;2024-02-15T13:16:34;4.88;;;1.20;;
83151;SDS011;73381;58.502;8.624;2024-02-15T13:19:36;3.55;;;1.20;;
83151;SDS011;73381;58.502;8.624;2024-02-15T13:22:38;3.20;;;0.63;;
83151;SDS011;73381;58.502;8.624;2024-02-15T13:25:41;2.20;;;0.70;;
83151;SDS011;73381;58.502;8.624;2024-02-15T13:28:44;1.75;;;0.65;;
83151;SDS011;73381;58.502;8.624;2024-02-15T13:31:46;5.13;;;0.68;;
83151;SDS011;73381;58.502;8.624;2024-02-15T13:34:48;1.50;;;0.55;;
83151;SDS011;73381;58.502;8.624;2024-02-15T13:47:23;0.93;;;0.45;;
83151;SDS011;73381;58.502;8.624;2024-02-15T13:53:38;1.90;;;0.70;;
83151;SDS011;73381;58.502;8.624;2024-02-15T13:56:40;1.98;;;0.80;;
83151;SDS011;73381;58.502;8.624;2024-02-15T13:59:42;0.93;;;0.35;;
83151;SDS011;73381;58.502;8.624;2024-02-15T14:02:46;2.05;;;0.73;;
83151;SDS011;73381;58.502;8.624;2024-02-15T14:05:48;0.85;;;0.50;;
83151;SDS011;73381;58.502;8.624;2024-02-15T14:08:51;1.85;;;0.80;;
83151;SDS011;73381;58.502;8.624;2024-02-15T14:15:12;1.45;;;0.57;;
83151;SDS011;73381;58.502;8.624;2024-02-15T14:18:16;2.60;;;0.65;;
83151;SDS011;73381;58.502;8.624;2024-02-15T14:21:18;2.85;;;0.52;;
83151;SDS011;73381;58.502;8.624;2024-02-15T14:24:20;1.75;;;0.65;;
83151;SDS011;73381;58.502;8.624;2024-02-15T14:27:23;3.13;;;1.10;;
83151;SDS011;73381;58.502;8.624;2024-02-15T14:30:27;3.80;;;1.45;;
83151;SDS011;73381;58.502;8.624;2024-02-15T14:36:48;1.98;;;0.73;;
83151;SDS011;73381;58.502;8.624;2024-02-15T14:39:49;2.10;;;0.90;;
83151;SDS011;73381;58.502;8.624;2024-02-15T14:42:51;1.23;;;0.60;;
83151;SDS011;73381;58.502;8.624;2024-02-15T14:45:58;2.75;;;0.77;;
83151;SDS011;73381;58.502;8.624;2024-02-15T14:49:03;2.78;;;0.80;;
83151;SDS011;73381;58.502;8.624;2024-02-15T14:58:50;3.22;;;1.35;;
83151;SDS011;73381;58.502;8.624;2024-02-15T15:01:52;2.20;;;0.75;;
83151;SDS011;73381;58.502;8.624;2024-02-15T15:11:14;0.75;;;0.32;;
83151;SDS011;73381;58.502;8.624;2024-02-15T15:40:17;5.13;;;1.50;;
83151;SDS011;73381;58.502;8.624;2024-02-15T15:43:20;6.88;;;2.25;;
83151;SDS011;73381;58.502;8.624;2024-02-15T16:52:11;2.13;;;0.80;;
83151;SDS011;73381;58.502;8.624;2024-02-15T17:25:03;0.93;;;0.40;;
83151;SDS011;73381;58.502;8.624;2024-02-15T17:31:32;1.00;;;0.47;;
83151;SDS011;73381;58.502;8.624;2024-02-15T17:34:34;1.48;;;0.50;;
83151;SDS011;73381;58.502;8.624;2024-02-15T17:37:37;4.55;;;1.13;;
83151;SDS011;73381;58.502;8.624;2024-02-15T17:53:29;2.65;;;0.68;;
83151;SDS011;73381;58.502;8.624;2024-02-15T18:02:45;2.08;;;0.70;;
83151;SDS011;73381;58.502;8.624;2024-02-15T18:05:49;1.20;;;0.40;;
83151;SDS011;73381;58.502;8.624;2024-02-15T18:12:29;2.88;;;1.02;;
83151;SDS011;73381;58.502;8.624;2024-02-15T18:15:31;1.40;;;0.68;;
83151;SDS011;73381;58.502;8.624;2024-02-15T18:21:40;1.88;;;0.70;;
83151;SDS011;73381;58.502;8.624;2024-02-15T18:24:42;2.72;;;0.90;;
83151;SDS011;73381;58.502;8.624;2024-02-15T18:27:45;2.25;;;0.88;;
83151;SDS011;73381;58.502;8.624;2024-02-15T18:37:17;2.95;;;0.95;;
83151;SDS011;73381;58.502;8.624;2024-02-15T18:40:19;5.07;;;1.75;;
83151;SDS011;73381;58.502;8.624;2024-02-15T18:43:27;5.75;;;1.67;;
83151;SDS011;73381;58.502;8.624;2024-02-15T18:46:29;2.15;;;0.90;;
83151;SDS011;73381;58.502;8.624;2024-02-15T18:52:57;2.03;;;0.65;;
83151;SDS011;73381;58.502;8.624;2024-02-15T18:55:59;1.33;;;0.65;;
83151;SDS011;73381;58.502;8.624;2024-02-15T18:59:09;2.58;;;0.85;;
83151;SDS011;73381;58.502;8.624;2024-02-15T19:02:11;1.65;;;0.57;;
83151;SDS011;73381;58.502;8.624;2024-02-15T19:08:22;2.17;;;0.73;;
83151;SDS011;73381;58.502;8.624;2024-02-15T19:24:26;1.85;;;0.50;;
83151;SDS011;73381;58.502;8.624;2024-02-15T19:27:28;1.10;;;0.43;;
83151;SDS011;73381;58.502;8.624;2024-02-15T19:30:30;1.27;;;0.60;;
83151;SDS011;73381;58.502;8.624;2024-02-15T19:33:31;0.43;;;0.20;;
83151;SDS011;73381;58.502;8.624;2024-02-15T19:36:54;2.05;;;0.88;;
83151;SDS011;73381;58.502;8.624;2024-02-15T19:40:10;0.90;;;0.43;;
83151;SDS011;73381;58.502;8.624;2024-02-15T19:46:32;2.10;;;0.80;;
83151;SDS011;73381;58.502;8.624;2024-02-15T19:49:37;1.08;;;0.50;;
83151;SDS011;73381;58.502;8.624;2024-02-15T19:52:39;0.45;;;0.20;;
83151;SDS011;73381;58.502;8.624;2024-02-15T20:02:00;1.73;;;0.50;;
83151;SDS011;73381;58.502;8.624;2024-02-15T20:14:58;0.80;;;0.32;;
83151;SDS011;73381;58.502;8.624;2024-02-15T20:18:01;2.70;;;1.00;;
83151;SDS011;73381;58.502;8.624;2024-02-15T20:21:03;2.15;;;0.88;;
83151;SDS011;73381;58.502;8.624;2024-02-15T20:24:05;4.45;;;1.40;;
83151;SDS011;73381;58.502;8.624;2024-02-15T20:30:27;1.00;;;0.22;;
83151;SDS011;73381;58.502;8.624;2024-02-15T20:33:31;4.10;;;1.00;;
83151;SDS011;73381;58.502;8.624;2024-02-15T20:36:33;0.35;;;0.10;;
83151;SDS011;73381;58.502;8.624;2024-02-15T20:39:34;0.38;;;0.20;;
83151;SDS011;73381;58.502;8.624;2024-02-15T20:42:36;0.43;;;0.25;;
83151;SDS011;73381;58.502;8.624;2024-02-15T20:45:38;0.63;;;0.15;;
83151;SDS011;73381;58.502;8.624;2024-02-15T20:52:00;0.65;;;0.30;;
83151;SDS011;73381;58.502;8.624;2024-02-15T20:58:06;0.57;;;0.28;;
83151;SDS011;73381;58.502;8.624;2024-02-15T21:01:07;1.17;;;0.25;;
83151;SDS011;73381;58.502;8.624;2024-02-15T21:04:09;2.67;;;0.32;;
83151;SDS011;73381;58.502;8.624;2024-02-15T21:16:38;1.90;;;0.45;;
83151;SDS011;73381;58.502;8.624;2024-02-15T21:19:40;1.73;;;0.40;;
83151;SDS011;73381;58.502;8.624;2024-02-15T21:22:44;0.47;;;0.20;;
83151;SDS011;73381;58.502;8.624;2024-02-15T21:25:46;1.35;;;0.45;;
83151;SDS011;73381;58.502;8.624;2024-02-15T21:28:49;1.70;;;0.60;;
83151;SDS011;73381;58.502;8.624;2024-02-15T21:31:51;3.08;;;0.98;;
83151;SDS011;73381;58.502;8.624;2024-02-15T21:41:18;0.73;;;0.20;;
83151;SDS011;73381;58.502;8.624;2024-02-15T21:44:22;1.25;;;0.40;;
83151;SDS011;73381;58.502;8.624;2024-02-15T21:47:25;0.47;;;0.20;;
83151;SDS011;73381;58.502;8.624;2024-02-15T21:50:26;0.57;;;0.30;;
83151;SDS011;73381;58.502;8.624;2024-02-15T21:56:35;0.80;;;0.20;;
83151;SDS011;73381;58.502;8.624;2024-02-15T21:59:38;0.43;;;0.13;;
83151;SDS011;73381;58.502;8.624;2024-02-15T22:02:40;0.05;;;0.03;;
83151;SDS011;73381;58.502;8.624;2024-02-15T22:05:41;0.65;;;0.13;;
83151;SDS011;73381;58.502;8.624;2024-02-15T22:08:44;0.43;;;0.28;;
83151;SDS011;73381;58.502;8.624;2024-02-15T22:18:01;1.88;;;0.35;;
83151;SDS011;73381;58.502;8.624;2024-02-15T22:24:08;0.28;;;0.10;;
83151;SDS011;73381;58.502;8.624;2024-02-15T22:27:10;0.35;;;0.10;;
83151;SDS011;73381;58.502;8.624;2024-02-15T22:39:52;0.77;;;0.30;;
83151;SDS011;73381;58.502;8.624;2024-02-15T22:49:32;2.03;;;0.55;;
83151;SDS011;73381;58.502;8.624;2024-02-15T22:52:35;0.55;;;0.30;;
83151;SDS011;73381;58.502;8.624;2024-02-15T22:58:48;0.38;;;0.20;;
83151;SDS011;73381;58.502;8.624;2024-02-15T23:04:54;0.10;;;0.10;;
83151;SDS011;73381;58.502;8.624;2024-02-15T23:07:56;0.05;;;0.03;;
83151;SDS011;73381;58.502;8.624;2024-02-15T23:10:58;0.20;;;0.13;;
83151;SDS011;73381;58.502;8.624;2024-02-15T23:14:01;0.47;;;0.17;;
83151;SDS011;73381;58.502;8.624;2024-02-15T23:17:03;0.00;;;0.00;;
83151;SDS011;73381;58.502;8.624;2024-02-15T23:20:06;0.43;;;0.10;;
83151;SDS011;73381;58.502;8.624;2024-02-15T23:23:09;0.20;;;0.03;;
83151;SDS011;73381;58.502;8.624;2024-02-15T23:29:31;0.55;;;0.22;;
83151;SDS011;73381;58.502;8.624;2024-02-15T23:32:33;0.55;;;0.30;;
83151;SDS011;73381;58.502;8.624;2024-02-15T23:35:35;0.30;;;0.30;;
83151;SDS011;73381;58.502;8.624;2024-02-15T23:38:37;0.43;;;0.28;;
83151;SDS011;73381;58.502;8.624;2024-02-15T23:41:39;0.20;;;0.20;;
83151;SDS011;73381;58.502;8.624;2024-02-15T23:44:42;0.40;;;0.20;;
83151;SDS011;73381;58.502;8.624;2024-02-15T23:50:57;0.40;;;0.10;;
83151;SDS011;73381;58.502;8.624;2024-02-15T23:53:59;0.00;;;0.00;;
83151;SDS011;73381;58.502;8.624;2024-02-15T23:57:01;0.38;;;0.10;;
